createdAt,value
2023-02-15T00:00:19.318Z,1023.8
2023-02-15T00:01:22.390Z,1023.8
2023-02-15T00:02:25.959Z,1023.8
2023-02-15T00:03:28.600Z,1023.8
2023-02-15T00:04:31.929Z,1023.8
2023-02-15T00:05:34.715Z,1023.8
2023-02-15T00:06:39.900Z,1023.8
2023-02-15T00:07:42.620Z,1023.8
2023-02-15T00:08:45.498Z,1023.8
2023-02-15T00:09:49.265Z,1023.8
2023-02-15T00:10:52.397Z,1023.8
2023-02-15T00:11:56.644Z,1023.7
2023-02-15T00:12:59.160Z,1023.7
2023-02-15T00:14:01.625Z,1023.8
2023-02-15T00:15:04.678Z,1023.7
2023-02-15T00:16:07.948Z,1023.6
2023-02-15T00:17:11.062Z,1023.7
2023-02-15T00:18:14.477Z,1023.6
2023-02-15T00:19:17.203Z,1023.7
2023-02-15T00:20:20.409Z,1023.6
2023-02-15T00:21:24.044Z,1023.6
2023-02-15T00:22:27.288Z,1023.6
2023-02-15T00:23:30.385Z,1023.5
2023-02-15T00:24:33.894Z,1023.6
2023-02-15T00:25:36.732Z,1023.6
2023-02-15T00:26:40.451Z,1023.6
2023-02-15T00:27:44.637Z,1023.6
2023-02-15T00:28:48.351Z,1023.6
2023-02-15T00:29:51.443Z,1023.6
2023-02-15T00:30:55.284Z,1023.5
2023-02-15T00:31:59.661Z,1023.6
2023-02-15T00:33:03.127Z,1023.6
2023-02-15T00:34:06.136Z,1023.6
2023-02-15T00:35:10.208Z,1023.6
2023-02-15T00:36:14.594Z,1023.6
2023-02-15T00:37:18.591Z,1023.6
2023-02-15T00:38:21.144Z,1023.6
2023-02-15T00:39:24.589Z,1023.6
2023-02-15T00:40:27.430Z,1023.6
2023-02-15T00:41:30.233Z,1023.6
2023-02-15T00:42:33.753Z,1023.6
2023-02-15T00:43:38.224Z,1023.6
2023-02-15T00:44:41.326Z,1023.6
2023-02-15T00:45:44.793Z,1023.6
2023-02-15T00:46:48.295Z,1023.6
2023-02-15T00:47:51.091Z,1023.6
2023-02-15T00:48:54.208Z,1023.6
2023-02-15T00:49:57.211Z,1023.6
2023-02-15T00:51:00.594Z,1023.5
2023-02-15T00:52:04.619Z,1023.6
2023-02-15T00:53:07.341Z,1023.6
2023-02-15T00:54:11.076Z,1023.6
2023-02-15T00:55:14.851Z,1023.5
2023-02-15T00:56:18.178Z,1023.5
2023-02-15T00:57:21.279Z,1023.6
2023-02-15T00:58:24.724Z,1023.5
2023-02-15T00:59:28.591Z,1023.5
2023-02-15T01:00:31.969Z,1023.5
2023-02-15T01:01:34.944Z,1023.5
2023-02-15T01:02:38.946Z,1023.5
2023-02-15T01:03:43.004Z,1023.4
2023-02-15T01:04:46.545Z,1023.4
2023-02-15T01:05:50.256Z,1023.4
2023-02-15T01:06:53.680Z,1023.4
2023-02-15T01:07:56.447Z,1023.4
2023-02-15T01:08:59.920Z,1023.5
2023-02-15T01:10:03.584Z,1023.4
2023-02-15T01:11:06.669Z,1023.4
2023-02-15T01:12:10.148Z,1023.4
2023-02-15T01:13:13.314Z,1023.4
2023-02-15T01:14:16.371Z,1023.3
2023-02-15T01:15:20.563Z,1023.4
2023-02-15T01:16:24.428Z,1023.4
2023-02-15T01:17:28.140Z,1023.3
2023-02-15T01:18:30.839Z,1023.3
2023-02-15T01:19:33.624Z,1023.3
2023-02-15T01:20:36.803Z,1023.3
2023-02-15T01:21:40.237Z,1023.3
2023-02-15T01:22:42.753Z,1023.2
2023-02-15T01:23:45.517Z,1023.3
2023-02-15T01:24:49.227Z,1023.2
2023-02-15T01:25:52.563Z,1023.1
2023-02-15T01:26:55.747Z,1023.1
2023-02-15T01:27:59.136Z,1023.1
2023-02-15T01:29:01.948Z,1023.1
2023-02-15T01:30:05.158Z,1023.1
2023-02-15T01:31:09.838Z,1023.1
2023-02-15T01:32:14.091Z,1023.1
2023-02-15T01:33:16.795Z,1023
2023-02-15T01:34:20.562Z,1023
2023-02-15T01:35:23.678Z,1023
2023-02-15T01:36:27.088Z,1023
2023-02-15T01:37:30.355Z,1023
2023-02-15T01:38:32.875Z,1022.9
2023-02-15T01:39:36.174Z,1022.9
2023-02-15T01:40:39.520Z,1022.9
2023-02-15T01:41:43.527Z,1022.9
2023-02-15T01:42:46.911Z,1022.9
2023-02-15T01:43:49.895Z,1022.8
2023-02-15T01:44:53.231Z,1022.8
2023-02-15T01:45:56.758Z,1022.8
2023-02-15T01:47:01.294Z,1022.8
2023-02-15T01:48:04.238Z,1022.8
2023-02-15T01:49:07.228Z,1022.8
2023-02-15T01:50:10.944Z,1022.8
2023-02-15T01:51:14.383Z,1022.8
2023-02-15T01:52:17.436Z,1022.7
2023-02-15T01:53:20.864Z,1022.7
2023-02-15T01:54:24.288Z,1022.7
2023-02-15T01:55:28.420Z,1022.6
2023-02-15T01:56:30.582Z,1022.7
2023-02-15T01:57:33.958Z,1022.7
2023-02-15T01:58:37.373Z,1022.7
2023-02-15T01:59:40.476Z,1022.7
2023-02-15T02:00:43.675Z,1022.7
2023-02-15T02:01:46.814Z,1022.7
2023-02-15T02:02:51.456Z,1022.7
2023-02-15T02:03:54.768Z,1022.7
2023-02-15T02:04:57.915Z,1022.7
2023-02-15T02:06:02.642Z,1022.7
2023-02-15T02:07:06.142Z,1022.7
2023-02-15T02:08:09.156Z,1022.7
2023-02-15T02:09:12.680Z,1022.7
2023-02-15T02:10:15.955Z,1022.7
2023-02-15T02:11:19.382Z,1022.7
2023-02-15T02:12:22.748Z,1022.6
2023-02-15T02:13:26.093Z,1022.7
2023-02-15T02:14:29.468Z,1022.7
2023-02-15T02:15:32.561Z,1022.7
2023-02-15T02:16:35.954Z,1022.7
2023-02-15T02:17:39.024Z,1022.7
2023-02-15T02:18:43.171Z,1022.6
2023-02-15T02:19:46.378Z,1022.6
2023-02-15T02:20:49.314Z,1022.6
2023-02-15T02:21:52.741Z,1022.6
2023-02-15T02:22:55.710Z,1022.6
2023-02-15T02:23:59.356Z,1022.6
2023-02-15T02:25:02.064Z,1022.6
2023-02-15T02:26:05.180Z,1022.6
2023-02-15T02:27:08.883Z,1022.6
2023-02-15T02:28:12.160Z,1022.5
2023-02-15T02:29:15.143Z,1022.6
2023-02-15T02:30:18.677Z,1022.5
2023-02-15T02:31:21.983Z,1022.5
2023-02-15T02:32:25.523Z,1022.5
2023-02-15T02:33:28.488Z,1022.5
2023-02-15T02:34:32.672Z,1022.5
2023-02-15T02:35:35.394Z,1022.5
2023-02-15T02:36:38.760Z,1022.5
2023-02-15T02:37:42.040Z,1022.4
2023-02-15T02:38:45.197Z,1022.4
2023-02-15T02:39:48.144Z,1022.4
2023-02-15T02:40:51.507Z,1022.4
2023-02-15T02:41:55.026Z,1022.4
2023-02-15T02:42:58.005Z,1022.4
2023-02-15T02:44:01.054Z,1022.3
2023-02-15T02:45:04.673Z,1022.3
2023-02-15T02:46:08.142Z,1022.3
2023-02-15T02:47:11.150Z,1022.4
2023-02-15T02:48:14.278Z,1022.3
2023-02-15T02:49:17.690Z,1022.3
2023-02-15T02:50:21.833Z,1022.3
2023-02-15T02:51:25.223Z,1022.3
2023-02-15T02:52:28.315Z,1022.3
2023-02-15T02:53:31.385Z,1022.2
2023-02-15T02:54:34.883Z,1022.2
2023-02-15T02:55:37.590Z,1022.2
2023-02-15T02:56:40.683Z,1022.2
2023-02-15T02:57:43.406Z,1022.2
2023-02-15T02:58:46.857Z,1022.2
2023-02-15T02:59:49.654Z,1022.2
2023-02-15T03:00:52.173Z,1022.2
2023-02-15T03:01:54.991Z,1022.2
2023-02-15T03:02:57.875Z,1022.2
2023-02-15T03:04:01.524Z,1022.2
2023-02-15T03:05:04.566Z,1022.2
2023-02-15T03:06:08.749Z,1022.2
2023-02-15T03:07:12.236Z,1022.2
2023-02-15T03:08:15.214Z,1022.1
2023-02-15T03:09:18.300Z,1022.1
2023-02-15T03:10:21.380Z,1022.1
2023-02-15T03:11:25.106Z,1022.1
2023-02-15T03:12:28.555Z,1022.1
2023-02-15T03:13:31.521Z,1022.1
2023-02-15T03:14:34.890Z,1022.1
2023-02-15T03:15:37.748Z,1022.1
2023-02-15T03:16:40.456Z,1022.1
2023-02-15T03:17:43.913Z,1022.1
2023-02-15T03:18:46.324Z,1022.1
2023-02-15T03:19:49.317Z,1022.1
2023-02-15T03:20:52.679Z,1022.1
2023-02-15T03:21:56.802Z,1022.1
2023-02-15T03:22:59.721Z,1022.1
2023-02-15T03:24:02.811Z,1022.1
2023-02-15T03:25:06.109Z,1022.1
2023-02-15T03:26:09.483Z,1022.1
2023-02-15T03:27:12.170Z,1022.1
2023-02-15T03:28:14.865Z,1022.1
2023-02-15T03:29:18.001Z,1022.1
2023-02-15T03:30:22.150Z,1022.1
2023-02-15T03:31:25.732Z,1022.1
2023-02-15T03:32:29.408Z,1022.1
2023-02-15T03:33:31.840Z,1022
2023-02-15T03:34:35.269Z,1022
2023-02-15T03:35:39.016Z,1022
2023-02-15T03:36:42.890Z,1022
2023-02-15T03:37:47.046Z,1022
2023-02-15T03:38:50.052Z,1021.9
2023-02-15T03:39:53.021Z,1021.9
2023-02-15T03:40:56.624Z,1021.9
2023-02-15T03:41:59.964Z,1021.9
2023-02-15T03:43:02.948Z,1021.9
2023-02-15T03:44:06.296Z,1021.9
2023-02-15T03:45:09.395Z,1021.8
2023-02-15T03:46:13.096Z,1021.8
2023-02-15T03:47:16.147Z,1021.9
2023-02-15T03:48:19.421Z,1021.8
2023-02-15T03:49:22.435Z,1021.8
2023-02-15T03:50:25.876Z,1021.8
2023-02-15T03:51:28.695Z,1021.8
2023-02-15T03:52:31.796Z,1021.8
2023-02-15T03:53:35.644Z,1021.8
2023-02-15T03:54:39.019Z,1021.7
2023-02-15T03:55:41.877Z,1021.7
2023-02-15T03:56:45.309Z,1021.7
2023-02-15T03:57:48.111Z,1021.7
2023-02-15T03:58:51.730Z,1021.8
2023-02-15T03:59:55.376Z,1021.8
2023-02-15T04:00:57.957Z,1021.8
2023-02-15T04:02:01.482Z,1021.8
2023-02-15T04:03:05.027Z,1021.8
2023-02-15T04:04:08.241Z,1021.8
2023-02-15T04:05:11.683Z,1021.8
2023-02-15T04:06:13.825Z,1021.8
2023-02-15T04:07:16.651Z,1021.8
2023-02-15T04:08:19.972Z,1021.8
2023-02-15T04:09:23.783Z,1021.8
2023-02-15T04:10:26.876Z,1021.8
2023-02-15T04:11:29.866Z,1021.8
2023-02-15T04:12:32.661Z,1021.8
2023-02-15T04:13:35.708Z,1021.7
2023-02-15T04:14:38.865Z,1021.7
2023-02-15T04:15:42.261Z,1021.7
2023-02-15T04:16:45.526Z,1021.7
2023-02-15T04:17:49.335Z,1021.7
2023-02-15T04:18:52.388Z,1021.7
2023-02-15T04:19:55.830Z,1021.7
2023-02-15T04:20:58.957Z,1021.7
2023-02-15T04:22:01.792Z,1021.7
2023-02-15T04:23:04.595Z,1021.7
2023-02-15T04:24:07.032Z,1021.7
2023-02-15T04:25:11.149Z,1021.7
2023-02-15T04:26:14.372Z,1021.7
2023-02-15T04:27:18.374Z,1021.7
2023-02-15T04:28:21.523Z,1021.6
2023-02-15T04:29:24.350Z,1021.6
2023-02-15T04:30:27.852Z,1021.6
2023-02-15T04:31:31.687Z,1021.6
2023-02-15T04:32:36.206Z,1021.6
2023-02-15T04:33:39.612Z,1021.5
2023-02-15T04:34:42.707Z,1021.5
2023-02-15T04:35:45.484Z,1021.5
2023-02-15T04:36:47.908Z,1021.5
2023-02-15T04:37:50.691Z,1021.5
2023-02-15T04:38:53.219Z,1021.4
2023-02-15T04:39:56.654Z,1021.4
2023-02-15T04:41:00.843Z,1021.4
2023-02-15T04:42:03.840Z,1021.4
2023-02-15T04:43:06.915Z,1021.4
2023-02-15T04:44:10.346Z,1021.4
2023-02-15T04:45:13.204Z,1021.4
2023-02-15T04:46:16.590Z,1021.4
2023-02-15T04:47:19.849Z,1021.4
2023-02-15T04:48:22.906Z,1021.4
2023-02-15T04:49:26.057Z,1021.4
2023-02-15T04:50:29.839Z,1021.4
2023-02-15T04:51:32.549Z,1021.4
2023-02-15T04:52:34.958Z,1021.4
2023-02-15T04:53:38.310Z,1021.4
2023-02-15T04:54:41.025Z,1021.3
2023-02-15T04:55:44.838Z,1021.3
2023-02-15T04:56:48.981Z,1021.3
2023-02-15T04:57:52.392Z,1021.3
2023-02-15T04:58:55.501Z,1021.3
2023-02-15T04:59:58.308Z,1021.3
2023-02-15T05:01:01.846Z,1021.2
2023-02-15T05:02:05.830Z,1021.2
2023-02-15T05:03:08.890Z,1021.2
2023-02-15T05:04:11.883Z,1021.2
2023-02-15T05:05:14.966Z,1021.2
2023-02-15T05:06:17.856Z,1021.2
2023-02-15T05:07:20.655Z,1021.2
2023-02-15T05:08:23.658Z,1021.2
2023-02-15T05:09:26.460Z,1021.2
2023-02-15T05:10:29.816Z,1021.2
2023-02-15T05:11:33.473Z,1021.2
2023-02-15T05:12:37.659Z,1021.2
2023-02-15T05:13:40.187Z,1021.1
2023-02-15T05:14:43.358Z,1021.1
2023-02-15T05:15:47.023Z,1021.1
2023-02-15T05:16:50.093Z,1021.1
2023-02-15T05:17:53.456Z,1021.1
2023-02-15T05:18:56.530Z,1021.1
2023-02-15T05:19:59.674Z,1021.1
2023-02-15T05:21:02.740Z,1021
2023-02-15T05:22:05.543Z,1021
2023-02-15T05:23:08.547Z,1021
2023-02-15T05:24:11.708Z,1021
2023-02-15T05:25:14.855Z,1021
2023-02-15T05:26:18.998Z,1021
2023-02-15T05:27:22.366Z,1021
2023-02-15T05:28:26.483Z,1021
2023-02-15T05:29:28.793Z,1021
2023-02-15T05:30:31.999Z,1021
2023-02-15T05:31:36.877Z,1021
2023-02-15T05:32:41.566Z,1021.1
2023-02-15T05:33:46.402Z,1021
2023-02-15T05:34:49.414Z,1021
2023-02-15T05:35:52.424Z,1021
2023-02-15T05:36:54.576Z,1021
2023-02-15T05:37:57.822Z,1020.9
2023-02-15T05:39:00.920Z,1020.9
2023-02-15T05:40:04.213Z,1020.9
2023-02-15T05:41:07.208Z,1020.9
2023-02-15T05:42:10.484Z,1020.9
2023-02-15T05:43:14.197Z,1020.9
2023-02-15T05:44:18.318Z,1020.9
2023-02-15T05:45:21.333Z,1020.9
2023-02-15T05:46:24.891Z,1020.9
2023-02-15T05:47:27.900Z,1020.9
2023-02-15T05:48:31.589Z,1021
2023-02-15T05:49:35.377Z,1021
2023-02-15T05:50:39.014Z,1021
2023-02-15T05:51:41.757Z,1021
2023-02-15T05:52:44.180Z,1021
2023-02-15T05:53:46.440Z,1021
2023-02-15T05:54:49.233Z,1021
2023-02-15T05:55:52.885Z,1021
2023-02-15T05:56:55.712Z,1021
2023-02-15T05:57:59.153Z,1021
2023-02-15T05:59:02.527Z,1021
2023-02-15T06:00:06.589Z,1021
2023-02-15T06:01:09.598Z,1021
2023-02-15T06:02:12.812Z,1021
2023-02-15T06:03:15.869Z,1021
2023-02-15T06:04:19.292Z,1021
2023-02-15T06:05:22.692Z,1021.1
2023-02-15T06:06:26.094Z,1021
2023-02-15T06:07:28.882Z,1021.1
2023-02-15T06:08:31.924Z,1021.1
2023-02-15T06:09:34.967Z,1021.1
2023-02-15T06:10:38.059Z,1021.1
2023-02-15T06:11:41.720Z,1021.1
2023-02-15T06:12:44.153Z,1021.1
2023-02-15T06:13:47.535Z,1021.1
2023-02-15T06:14:50.560Z,1021.1
2023-02-15T06:15:54.506Z,1021.1
2023-02-15T06:16:58.549Z,1021.1
2023-02-15T06:18:01.246Z,1021.1
2023-02-15T06:19:04.517Z,1021.1
2023-02-15T06:20:07.625Z,1021.1
2023-02-15T06:21:10.369Z,1021.1
2023-02-15T06:22:13.721Z,1021.1
2023-02-15T06:23:16.557Z,1021
2023-02-15T06:24:19.932Z,1021.1
2023-02-15T06:25:22.742Z,1021
2023-02-15T06:26:26.103Z,1021
2023-02-15T06:27:29.265Z,1021
2023-02-15T06:28:32.063Z,1021
2023-02-15T06:29:35.115Z,1021
2023-02-15T06:30:38.904Z,1021
2023-02-15T06:31:43.785Z,1021
2023-02-15T06:32:47.272Z,1020.9
2023-02-15T06:33:50.672Z,1021
2023-02-15T06:34:54.089Z,1021
2023-02-15T06:35:57.452Z,1021
2023-02-15T06:37:00.845Z,1020.9
2023-02-15T06:38:03.710Z,1021
2023-02-15T06:39:06.535Z,1020.9
2023-02-15T06:40:10.066Z,1020.9
2023-02-15T06:41:13.683Z,1020.9
2023-02-15T06:42:17.170Z,1021
2023-02-15T06:43:20.214Z,1020.9
2023-02-15T06:44:22.998Z,1020.9
2023-02-15T06:45:26.101Z,1020.9
2023-02-15T06:46:29.295Z,1020.9
2023-02-15T06:47:33.801Z,1020.9
2023-02-15T06:48:36.389Z,1020.8
2023-02-15T06:49:39.302Z,1020.8
2023-02-15T06:50:42.532Z,1020.8
2023-02-15T06:51:46.512Z,1020.9
2023-02-15T06:52:48.950Z,1020.8
2023-02-15T06:53:52.598Z,1020.9
2023-02-15T06:54:55.486Z,1020.9
2023-02-15T06:55:58.974Z,1020.9
2023-02-15T06:57:02.991Z,1020.9
2023-02-15T06:58:06.732Z,1020.9
2023-02-15T06:59:10.396Z,1020.9
2023-02-15T07:00:13.764Z,1020.9
2023-02-15T07:01:16.953Z,1020.9
2023-02-15T07:02:20.513Z,1020.9
2023-02-15T07:03:24.635Z,1020.9
2023-02-15T07:04:28.409Z,1020.9
2023-02-15T07:05:32.447Z,1020.9
2023-02-15T07:06:36.265Z,1020.9
2023-02-15T07:07:39.645Z,1020.9
2023-02-15T07:08:42.668Z,1021
2023-02-15T07:09:46.192Z,1021
2023-02-15T07:10:49.481Z,1021
2023-02-15T07:11:52.846Z,1021
2023-02-15T07:12:55.839Z,1021
2023-02-15T07:13:58.944Z,1021
2023-02-15T07:15:01.990Z,1021
2023-02-15T07:16:05.777Z,1021
2023-02-15T07:17:35.274Z,1021
2023-02-15T07:18:40.554Z,1021
2023-02-15T07:19:43.792Z,1021
2023-02-15T07:20:47.504Z,1021
2023-02-15T07:21:50.572Z,1021
2023-02-15T07:22:53.942Z,1021
2023-02-15T07:23:57.411Z,1021
2023-02-15T07:24:59.948Z,1020.9
2023-02-15T07:26:03.864Z,1020.9
2023-02-15T07:27:07.216Z,1020.9
2023-02-15T07:28:10.340Z,1021
2023-02-15T07:29:13.037Z,1020.9
2023-02-15T07:30:17.092Z,1020.9
2023-02-15T07:31:20.930Z,1020.9
2023-02-15T07:32:24.445Z,1020.9
2023-02-15T07:33:28.139Z,1020.9
2023-02-15T07:34:32.532Z,1020.9
2023-02-15T07:35:35.322Z,1020.9
2023-02-15T07:36:38.762Z,1020.8
2023-02-15T07:37:42.098Z,1020.8
2023-02-15T07:38:44.887Z,1020.9
2023-02-15T07:39:48.254Z,1020.9
2023-02-15T07:40:52.082Z,1020.9
2023-02-15T07:41:55.073Z,1020.9
2023-02-15T07:42:58.452Z,1020.8
2023-02-15T07:44:01.655Z,1020.8
2023-02-15T07:45:05.074Z,1020.8
2023-02-15T07:46:08.229Z,1020.8
2023-02-15T07:47:11.832Z,1020.8
2023-02-15T07:48:14.913Z,1020.8
2023-02-15T07:49:18.439Z,1020.8
2023-02-15T07:50:22.596Z,1020.8
2023-02-15T07:51:26.389Z,1020.8
2023-02-15T07:52:29.729Z,1020.8
2023-02-15T07:53:33.107Z,1020.7
2023-02-15T07:54:36.864Z,1020.7
2023-02-15T07:55:39.724Z,1020.7
2023-02-15T07:56:42.846Z,1020.7
2023-02-15T07:57:46.166Z,1020.7
2023-02-15T07:58:49.535Z,1020.7
2023-02-15T07:59:52.889Z,1020.7
2023-02-15T08:00:55.678Z,1020.6
2023-02-15T08:01:59.482Z,1020.6
2023-02-15T08:03:03.175Z,1020.6
2023-02-15T08:04:07.280Z,1020.6
2023-02-15T08:05:10.434Z,1020.6
2023-02-15T08:06:14.696Z,1020.6
2023-02-15T08:07:17.759Z,1020.6
2023-02-15T08:08:21.131Z,1020.6
2023-02-15T08:09:24.461Z,1020.6
2023-02-15T08:10:27.724Z,1020.6
2023-02-15T08:11:30.913Z,1020.6
2023-02-15T08:12:34.640Z,1020.6
2023-02-15T08:13:38.027Z,1020.5
2023-02-15T08:14:41.372Z,1020.6
2023-02-15T08:15:44.522Z,1020.5
2023-02-15T08:16:48.025Z,1020.5
2023-02-15T08:17:52.144Z,1020.5
2023-02-15T08:18:55.320Z,1020.5
2023-02-15T08:19:57.487Z,1020.4
2023-02-15T08:21:00.598Z,1020.5
2023-02-15T08:22:04.796Z,1020.5
2023-02-15T08:23:07.691Z,1020.5
2023-02-15T08:24:10.487Z,1020.5
2023-02-15T08:25:13.335Z,1020.5
2023-02-15T08:26:16.697Z,1020.4
2023-02-15T08:27:19.752Z,1020.4
2023-02-15T08:28:22.796Z,1020.4
2023-02-15T08:29:26.164Z,1020.4
2023-02-15T08:30:30.176Z,1020.3
2023-02-15T08:31:36.811Z,1020.3
2023-02-15T08:32:40.550Z,1020.3
2023-02-15T08:33:44.000Z,1020.2
2023-02-15T08:34:47.062Z,1020.2
2023-02-15T08:35:50.491Z,1020.3
2023-02-15T08:36:53.608Z,1020.3
2023-02-15T08:37:57.849Z,1020.3
2023-02-15T08:39:00.648Z,1020.3
2023-02-15T08:40:03.439Z,1020.3
2023-02-15T08:41:06.504Z,1020.3
2023-02-15T08:42:09.560Z,1020.2
2023-02-15T08:43:12.633Z,1020.3
2023-02-15T08:44:16.350Z,1020.2
2023-02-15T08:45:19.359Z,1020.2
2023-02-15T08:46:23.060Z,1020.2
2023-02-15T08:47:26.430Z,1020.1
2023-02-15T08:48:29.839Z,1020.1
2023-02-15T08:49:32.629Z,1020.1
2023-02-15T08:50:36.343Z,1020.2
2023-02-15T08:51:40.049Z,1020.1
2023-02-15T08:52:42.784Z,1020.2
2023-02-15T08:53:47.004Z,1020.2
2023-02-15T08:54:49.522Z,1020.2
2023-02-15T08:55:52.338Z,1020.1
2023-02-15T08:56:55.898Z,1020.1
2023-02-15T08:57:58.932Z,1020.1
2023-02-15T08:59:02.450Z,1020.1
2023-02-15T09:00:05.950Z,1020.1
2023-02-15T09:01:09.876Z,1020.1
2023-02-15T09:02:13.246Z,1020.1
2023-02-15T09:03:16.300Z,1020.1
2023-02-15T09:04:19.332Z,1020.1
2023-02-15T09:05:22.165Z,1020.1
2023-02-15T09:06:25.522Z,1020.1
2023-02-15T09:07:28.821Z,1020
2023-02-15T09:08:31.874Z,1020
2023-02-15T09:09:36.110Z,1019.9
2023-02-15T09:10:39.184Z,1019.9
2023-02-15T09:11:41.985Z,1019.9
2023-02-15T09:12:45.004Z,1020
2023-02-15T09:13:48.138Z,1019.9
2023-02-15T09:14:52.508Z,1019.9
2023-02-15T09:15:56.216Z,1019.9
2023-02-15T09:16:59.450Z,1019.9
2023-02-15T09:18:02.904Z,1019.9
2023-02-15T09:19:06.508Z,1019.9
2023-02-15T09:20:09.613Z,1019.9
2023-02-15T09:21:12.475Z,1019.8
2023-02-15T09:22:16.207Z,1019.8
2023-02-15T09:23:27.587Z,1019.8
2023-02-15T09:24:30.431Z,1019.8
2023-02-15T09:25:34.653Z,1019.8
2023-02-15T09:26:37.760Z,1019.8
2023-02-15T09:27:41.113Z,1019.8
2023-02-15T09:28:44.526Z,1019.9
2023-02-15T09:29:47.875Z,1019.9
2023-02-15T09:30:51.039Z,1019.9
2023-02-15T09:31:54.560Z,1019.8
2023-02-15T09:32:58.544Z,1019.8
2023-02-15T09:34:01.919Z,1019.8
2023-02-15T09:35:04.793Z,1019.8
2023-02-15T09:36:08.584Z,1019.9
2023-02-15T09:37:11.635Z,1019.9
2023-02-15T09:38:14.502Z,1019.9
2023-02-15T09:39:17.581Z,1019.9
2023-02-15T09:40:21.635Z,1019.9
2023-02-15T09:41:25.771Z,1019.9
2023-02-15T09:42:28.475Z,1019.9
2023-02-15T09:43:31.257Z,1019.9
2023-02-15T09:44:34.709Z,1019.9
2023-02-15T09:45:37.827Z,1019.9
2023-02-15T09:46:41.062Z,1019.9
2023-02-15T09:47:44.168Z,1019.9
2023-02-15T09:48:47.296Z,1019.9
2023-02-15T09:49:50.649Z,1019.9
2023-02-15T09:50:53.104Z,1020
2023-02-15T09:51:56.436Z,1019.9
2023-02-15T09:52:58.867Z,1019.9
2023-02-15T09:54:02.038Z,1019.9
2023-02-15T09:55:05.499Z,1019.9
2023-02-15T09:56:08.914Z,1019.9
2023-02-15T09:57:13.260Z,1019.9
2023-02-15T09:58:16.060Z,1019.9
2023-02-15T09:59:19.454Z,1019.9
2023-02-15T10:00:23.663Z,1019.9
2023-02-15T10:01:26.977Z,1019.9
2023-02-15T10:02:30.676Z,1019.8
2023-02-15T10:03:33.815Z,1019.9
2023-02-15T10:04:37.381Z,1019.9
2023-02-15T10:05:41.277Z,1019.9
2023-02-15T10:06:44.135Z,1019.9
2023-02-15T10:07:47.759Z,1019.9
2023-02-15T10:08:51.472Z,1019.9
2023-02-15T10:09:54.239Z,1019.9
2023-02-15T10:10:57.952Z,1019.8
2023-02-15T10:12:01.118Z,1019.9
2023-02-15T10:13:05.528Z,1019.9
2023-02-15T10:14:08.588Z,1019.8
2023-02-15T10:15:12.029Z,1019.8
2023-02-15T10:16:15.053Z,1019.8
2023-02-15T10:17:17.952Z,1019.7
2023-02-15T10:18:21.221Z,1019.8
2023-02-15T10:19:25.820Z,1019.8
2023-02-15T10:20:31.886Z,1019.8
2023-02-15T10:21:35.545Z,1019.8
2023-02-15T10:22:38.962Z,1019.7
2023-02-15T10:23:42.140Z,1019.8
2023-02-15T10:24:49.272Z,1019.7
2023-02-15T10:25:52.725Z,1019.7
2023-02-15T10:26:55.450Z,1019.7
2023-02-15T10:27:58.991Z,1019.7
2023-02-15T10:29:03.328Z,1019.6
2023-02-15T10:30:07.530Z,1019.6
2023-02-15T10:31:11.192Z,1019.6
2023-02-15T10:32:15.494Z,1019.5
2023-02-15T10:33:20.050Z,1019.5
2023-02-15T10:34:22.833Z,1019.5
2023-02-15T10:35:26.110Z,1019.5
2023-02-15T10:36:29.289Z,1019.5
2023-02-15T10:37:32.658Z,1019.4
2023-02-15T10:38:36.035Z,1019.4
2023-02-15T10:39:39.453Z,1019.4
2023-02-15T10:40:42.892Z,1019.3
2023-02-15T10:41:47.734Z,1019.3
2023-02-15T10:42:50.822Z,1019.3
2023-02-15T10:43:53.637Z,1019.3
2023-02-15T10:44:57.988Z,1019.4
2023-02-15T10:46:00.800Z,1019.4
2023-02-15T10:47:04.726Z,1019.3
2023-02-15T10:48:08.091Z,1019.3
2023-02-15T10:49:11.716Z,1019.4
2023-02-15T10:50:15.576Z,1019.4
2023-02-15T10:51:19.016Z,1019.4
2023-02-15T10:52:24.769Z,1019.4
2023-02-15T10:53:27.885Z,1019.4
2023-02-15T10:54:31.172Z,1019.4
2023-02-15T10:55:34.068Z,1019.4
2023-02-15T10:56:37.791Z,1019.4
2023-02-15T10:57:41.169Z,1019.4
2023-02-15T10:58:43.624Z,1019.4
2023-02-15T10:59:46.788Z,1019.4
2023-02-15T11:00:51.160Z,1019.4
2023-02-15T11:01:54.419Z,1019.4
2023-02-15T11:02:57.667Z,1019.3
2023-02-15T11:04:01.016Z,1019.3
2023-02-15T11:05:04.856Z,1019.3
2023-02-15T11:06:08.501Z,1019.3
2023-02-15T11:07:11.603Z,1019.3
2023-02-15T11:08:14.712Z,1019.3
2023-02-15T11:09:18.163Z,1019.3
2023-02-15T11:10:21.799Z,1019.3
2023-02-15T11:11:24.979Z,1019.3
2023-02-15T11:12:28.403Z,1019.3
2023-02-15T11:13:31.891Z,1019.3
2023-02-15T11:14:34.992Z,1019.3
2023-02-15T11:15:38.508Z,1019.3
2023-02-15T11:16:42.938Z,1019.3
2023-02-15T11:17:46.591Z,1019.3
2023-02-15T11:18:50.856Z,1019.3
2023-02-15T11:19:54.385Z,1019.3
2023-02-15T11:20:57.648Z,1019.3
2023-02-15T11:22:01.115Z,1019.3
2023-02-15T11:23:04.486Z,1019.3
2023-02-15T11:24:08.213Z,1019.3
2023-02-15T11:25:12.398Z,1019.2
2023-02-15T11:26:15.802Z,1019.2
2023-02-15T11:27:19.312Z,1019.2
2023-02-15T11:28:23.374Z,1019.2
2023-02-15T11:29:26.363Z,1019.2
2023-02-15T11:30:29.525Z,1019.2
2023-02-15T11:31:33.840Z,1019.2
2023-02-15T11:32:38.503Z,1019.3
2023-02-15T11:33:42.189Z,1019.2
2023-02-15T11:34:45.593Z,1019.2
2023-02-15T11:35:48.943Z,1019.2
2023-02-15T11:36:51.942Z,1019.2
2023-02-15T11:37:55.464Z,1019.1
2023-02-15T11:38:58.790Z,1019.2
2023-02-15T11:40:02.283Z,1019.2
2023-02-15T11:41:05.953Z,1019.1
2023-02-15T11:42:09.228Z,1019.1
2023-02-15T11:43:11.947Z,1019.1
2023-02-15T11:44:14.927Z,1019.1
2023-02-15T11:45:18.322Z,1019.1
2023-02-15T11:46:22.217Z,1019.1
2023-02-15T11:47:25.975Z,1019.1
2023-02-15T11:48:30.360Z,1019.1
2023-02-15T11:49:33.260Z,1019
2023-02-15T11:50:37.271Z,1019.1
2023-02-15T11:51:40.924Z,1019
2023-02-15T11:52:44.582Z,1019
2023-02-15T11:53:47.712Z,1019
2023-02-15T11:54:51.393Z,1019
2023-02-15T11:55:54.425Z,1019
2023-02-15T11:56:57.506Z,1019
2023-02-15T11:58:01.254Z,1019
2023-02-15T11:59:04.113Z,1018.9
2023-02-15T12:00:07.769Z,1018.9
2023-02-15T12:01:10.916Z,1018.9
2023-02-15T12:02:13.983Z,1019
2023-02-15T12:03:17.229Z,1018.9
2023-02-15T12:04:21.897Z,1018.9
2023-02-15T12:05:25.971Z,1018.9
2023-02-15T12:06:29.823Z,1018.8
2023-02-15T12:07:32.817Z,1018.8
2023-02-15T12:08:35.682Z,1018.8
2023-02-15T12:09:38.821Z,1018.8
2023-02-15T12:10:42.298Z,1018.8
2023-02-15T12:11:45.714Z,1018.7
2023-02-15T12:12:48.511Z,1018.7
2023-02-15T12:13:51.501Z,1018.7
2023-02-15T12:14:54.969Z,1018.7
2023-02-15T12:15:58.824Z,1018.7
2023-02-15T12:17:01.846Z,1018.7
2023-02-15T12:18:04.615Z,1018.6
2023-02-15T12:19:07.354Z,1018.6
2023-02-15T12:20:11.841Z,1018.7
2023-02-15T12:21:15.192Z,1018.7
2023-02-15T12:22:18.484Z,1018.7
2023-02-15T12:23:21.715Z,1018.7
2023-02-15T12:24:24.978Z,1018.7
2023-02-15T12:25:28.175Z,1018.6
2023-02-15T12:26:31.262Z,1018.6
2023-02-15T12:27:34.366Z,1018.6
2023-02-15T12:28:41.349Z,1018.5
2023-02-15T12:29:44.408Z,1018.6
2023-02-15T12:30:47.529Z,1018.5
2023-02-15T12:31:51.612Z,1018.5
2023-02-15T12:32:55.687Z,1018.5
2023-02-15T12:33:59.558Z,1018.5
2023-02-15T12:35:03.612Z,1018.5
2023-02-15T12:36:07.819Z,1018.5
2023-02-15T12:37:10.843Z,1018.5
2023-02-15T12:38:14.129Z,1018.5
2023-02-15T12:39:16.914Z,1018.5
2023-02-15T12:40:20.372Z,1018.5
2023-02-15T12:41:23.457Z,1018.4
2023-02-15T12:42:26.811Z,1018.4
2023-02-15T12:43:29.254Z,1018.5
2023-02-15T12:44:32.603Z,1018.5
2023-02-15T12:45:35.734Z,1018.5
2023-02-15T12:46:39.587Z,1018.5
2023-02-15T12:47:43.214Z,1018.5
2023-02-15T12:48:46.906Z,1018.5
2023-02-15T12:49:49.957Z,1018.6
2023-02-15T12:50:56.100Z,1018.5
2023-02-15T12:52:00.289Z,1018.5
2023-02-15T12:53:03.091Z,1018.5
2023-02-15T12:54:06.479Z,1018.5
2023-02-15T12:55:09.930Z,1018.5
2023-02-15T12:56:12.636Z,1018.4
2023-02-15T12:57:15.499Z,1018.5
2023-02-15T12:58:18.513Z,1018.5
2023-02-15T12:59:23.821Z,1018.4
2023-02-15T13:00:26.892Z,1018.4
2023-02-15T13:01:30.755Z,1018.4
2023-02-15T13:02:33.921Z,1018.4
2023-02-15T13:03:37.531Z,1018.3
2023-02-15T13:04:40.845Z,1018.3
2023-02-15T13:05:45.743Z,1018.3
2023-02-15T13:06:49.511Z,1018.3
2023-02-15T13:07:53.860Z,1018.3
2023-02-15T13:08:57.213Z,1018.3
2023-02-15T13:10:01.399Z,1018.3
2023-02-15T13:11:05.263Z,1018.3
2023-02-15T13:12:08.325Z,1018.2
2023-02-15T13:13:11.422Z,1018.2
2023-02-15T13:14:15.294Z,1018.2
2023-02-15T13:15:18.440Z,1018.1
2023-02-15T13:16:22.164Z,1018.1